Time;durP1;ratioP1;P1;durP2;ratioP2;P2;SDS_P1;SDS_P2;PMS_P1;PMS_P2;Temp;Humidity;BMP_temperature;BMP_pressure;BME280_temperature;BME280_humidity;BME280_pressure;Samples;Min_cycle;Max_cycle;Signal;HPM_P1;HPM_P2
2021/01/01 00:01:36;;;;;;;40.55;23.10;;;128.80;2252.80;;;;;;5071358;28;20016;-60
2021/01/01 00:04:03;;;;;;;34.65;19.60;;;128.80;2252.80;;;;;;5073176;28;20024;-60
2021/01/01 00:06:29;;;;;;;30.30;18.85;;;128.80;2252.80;;;;;;5072975;28;20444;-61
2021/01/01 00:08:55;;;;;;;28.13;19.48;;;128.80;2252.80;;;;;;5073038;28;20029;-61
2021/01/01 00:11:21;;;;;;;63.00;37.13;;;128.90;2252.80;;;;;;5072764;28;20508;-60
2021/01/01 00:13:47;;;;;;;24.52;17.83;;;128.80;2252.80;;;;;;5072440;28;20024;-62
2021/01/01 00:16:13;;;;;;;33.40;21.42;;;128.80;2252.80;;;;;;5073028;28;20367;-59
2021/01/01 00:18:42;;;;;;;26.45;17.65;;;128.70;2252.80;;;;;;5072166;28;20020;-60
2021/01/01 00:21:09;;;;;;;24.25;16.13;;;128.80;2252.80;;;;;;5071720;28;20024;-62
2021/01/01 00:23:35;;;;;;;29.88;20.35;;;128.80;2252.80;;;;;;5072575;28;20055;-61
2021/01/01 00:26:01;;;;;;;25.83;16.25;;;128.70;2252.80;;;;;;5070219;28;20451;-60
2021/01/01 00:28:27;;;;;;;25.15;15.23;;;128.70;2252.80;;;;;;5071398;28;20032;-60
2021/01/01 00:30:53;;;;;;;23.05;16.10;;;128.80;2252.80;;;;;;5072234;28;20016;-59
2021/01/01 00:33:19;;;;;;;37.10;21.92;;;128.70;2252.80;;;;;;5072117;28;20027;-61
2021/01/01 00:35:46;;;;;;;22.08;15.52;;;128.70;2252.80;;;;;;5072273;28;20065;-60
2021/01/01 00:38:12;;;;;;;23.15;15.77;;;128.80;2252.80;;;;;;5071170;28;20036;-60
2021/01/01 00:40:37;;;;;;;30.17;18.98;;;128.80;2252.80;;;;;;5072108;28;20374;-60
2021/01/01 00:43:03;;;;;;;29.65;19.02;;;128.80;2252.80;;;;;;5071309;28;20410;-61
2021/01/01 00:45:29;;;;;;;27.85;18.27;;;128.80;2252.80;;;;;;5071720;28;20103;-62
2021/01/01 00:47:55;;;;;;;24.58;15.73;;;128.80;2227.20;;;;;;5071194;28;20555;-61
2021/01/01 00:50:20;;;;;;;32.65;18.48;;;128.80;2227.20;;;;;;5071424;28;20024;-60
2021/01/01 00:52:46;;;;;;;25.15;16.42;;;128.90;2252.80;;;;;;5071325;28;20029;-60
2021/01/01 00:55:12;;;;;;;28.30;17.88;;;128.90;2227.20;;;;;;5071104;28;20058;-60
2021/01/01 00:57:38;;;;;;;31.05;18.92;;;128.90;2201.60;;;;;;5071665;28;20120;-61
2021/01/01 01:00:06;;;;;;;26.75;17.08;;;128.90;2227.20;;;;;;5071643;28;20047;-60
2021/01/01 01:02:32;;;;;;;27.75;17.70;;;153.60;2227.20;;;;;;5071408;28;20116;-60
2021/01/01 01:04:58;;;;;;;28.98;21.08;;;153.60;2201.60;;;;;;5071822;28;20435;-61
2021/01/01 01:07:24;;;;;;;31.15;19.05;;;153.60;2227.20;;;;;;5072334;28;20127;-61
2021/01/01 01:09:50;;;;;;;32.13;19.10;;;153.60;2201.60;;;;;;5071489;28;20029;-61
2021/01/01 01:12:18;;;;;;;37.75;22.33;;;128.90;2201.60;;;;;;5072107;28;20024;-60
2021/01/01 01:14:43;;;;;;;35.72;21.50;;;128.80;2227.20;;;;;;5072000;28;20063;-59
2021/01/01 01:17:09;;;;;;;32.58;21.73;;;128.90;2227.20;;;;;;5067202;28;20477;-57
2021/01/01 01:19:35;;;;;;;36.22;22.02;;;128.90;2227.20;;;;;;5071682;28;20486;-58
2021/01/01 01:22:00;;;;;;;35.03;20.48;;;153.60;2201.60;;;;;;5071324;28;20490;-57
2021/01/01 01:24:26;;;;;;;28.80;18.42;;;128.90;2201.60;;;;;;5072499;28;20033;-57
2021/01/01 01:26:52;;;;;;;36.13;22.05;;;128.90;2201.60;;;;;;5072191;28;20031;-56
2021/01/01 01:29:17;;;;;;;31.48;20.08;;;153.60;2201.60;;;;;;5071376;28;20105;-56
2021/01/01 01:31:43;;;;;;;31.17;19.77;;;153.60;2201.60;;;;;;5071405;28;20013;-56
2021/01/01 01:34:08;;;;;;;28.40;18.42;;;153.60;2201.60;;;;;;5070818;28;20069;-59
2021/01/01 01:36:35;;;;;;;28.10;18.77;;;153.70;2176.00;;;;;;5070624;28;20356;-58
2021/01/01 01:39:01;;;;;;;31.48;19.38;;;153.70;2176.00;;;;;;5071188;28;20048;-56
2021/01/01 01:41:26;;;;;;;30.98;19.85;;;153.60;2176.00;;;;;;5071416;28;20033;-58
2021/01/01 01:43:52;;;;;;;37.60;22.65;;;153.60;2201.60;;;;;;5072000;28;20020;-56
2021/01/01 01:46:18;;;;;;;32.58;20.30;;;153.60;2201.60;;;;;;5071557;28;20032;-60
2021/01/01 01:48:44;;;;;;;27.90;18.02;;;153.70;2201.60;;;;;;5072072;28;20028;-55
2021/01/01 01:51:11;;;;;;;30.58;19.92;;;153.70;2176.00;;;;;;5072254;28;20021;-56
2021/01/01 01:53:55;;;;;;;37.33;21.25;;;153.70;2176.00;;;;;;5072152;28;20021;-58
2021/01/01 01:56:21;;;;;;;31.45;20.27;;;153.70;2176.00;;;;;;5072277;28;20044;-57
2021/01/01 01:58:46;;;;;;;27.10;18.92;;;153.70;2201.60;;;;;;5070040;28;20078;-56
2021/01/01 02:01:12;;;;;;;33.92;21.77;;;153.70;2201.60;;;;;;5072295;28;20111;-55
2021/01/01 02:03:38;;;;;;;34.20;20.05;;;153.70;2201.60;;;;;;5071770;28;20032;-57
2021/01/01 02:06:04;;;;;;;33.78;21.15;;;153.90;2176.00;;;;;;5072083;28;20076;-57
2021/01/01 02:08:30;;;;;;;29.48;20.48;;;154.00;2150.40;;;;;;5071841;28;20029;-56
2021/01/01 02:10:59;;;;;;;38.40;22.50;;;154.00;2150.40;;;;;;5072444;28;20547;-57
2021/01/01 02:13:26;;;;;;;30.73;18.33;;;154.00;2150.40;;;;;;5071430;28;20032;-57
2021/01/01 02:15:52;;;;;;;35.65;20.27;;;154.10;2124.80;;;;;;5070882;28;20028;-57
2021/01/01 02:18:38;;;;;;;28.40;18.25;;;154.10;2124.80;;;;;;5071754;28;20056;-55
2021/01/01 02:21:05;;;;;;;29.70;19.15;;;154.00;2124.80;;;;;;5070142;28;20071;-57
2021/01/01 02:23:32;;;;;;;26.80;16.70;;;154.00;2124.80;;;;;;5071410;28;20025;-57
2021/01/01 02:25:57;;;;;;;28.00;18.77;;;154.00;2124.80;;;;;;5071578;28;20021;-57
2021/01/01 02:28:23;;;;;;;28.38;16.95;;;154.00;2124.80;;;;;;5071283;28;20029;-57
2021/01/01 02:30:49;;;;;;;31.48;19.45;;;153.90;2124.80;;;;;;5071093;28;20016;-56
2021/01/01 02:33:15;;;;;;;28.48;18.73;;;154.00;2252.80;;;;;;5070765;28;20078;-57
2021/01/01 02:35:41;;;;;;;23.10;15.88;;;153.90;2124.80;;;;;;5071464;28;20016;-57
2021/01/01 02:38:07;;;;;;;22.17;14.93;;;153.90;2099.20;;;;;;5071230;28;20024;-56
2021/01/01 02:40:32;;;;;;;21.38;14.38;;;154.00;2099.20;;;;;;5071051;28;20525;-57
2021/01/01 02:42:58;;;;;;;21.80;14.82;;;153.90;2099.20;;;;;;5070564;28;20028;-56
2021/01/01 02:45:24;;;;;;;23.63;15.65;;;153.90;2099.20;;;;;;5072866;28;20032;-56
2021/01/01 02:47:49;;;;;;;23.65;15.82;;;154.00;2124.80;;;;;;5075240;28;20467;-55
2021/01/01 02:50:17;;;;;;;24.52;15.65;;;154.00;2124.80;;;;;;5075093;28;20021;-56
2021/01/01 02:52:43;;;;;;;28.25;16.27;;;154.00;2099.20;;;;;;5075431;28;20033;-55
2021/01/01 02:55:10;;;;;;;25.95;15.93;;;154.00;2099.20;;;;;;5075276;28;20469;-55
2021/01/01 02:57:35;;;;;;;29.83;16.95;;;153.90;2099.20;;;;;;5075257;28;20111;-55
2021/01/01 03:00:03;;;;;;;29.27;17.58;;;153.90;2099.20;;;;;;5074835;28;20561;-55
2021/01/01 03:02:29;;;;;;;34.80;22.23;;;153.80;2099.20;;;;;;5075359;28;20025;-55
2021/01/01 03:04:54;;;;;;;26.80;17.48;;;153.80;2099.20;;;;;;5075681;28;20028;-56
2021/01/01 03:07:20;;;;;;;28.77;18.23;;;153.80;2099.20;;;;;;5074705;28;20037;-55
2021/01/01 03:09:46;;;;;;;28.98;17.77;;;153.80;2099.20;;;;;;5075138;28;20104;-56
2021/01/01 03:12:11;;;;;;;26.05;17.58;;;153.80;2124.80;;;;;;5075012;28;20065;-55
2021/01/01 03:14:37;;;;;;;25.92;17.08;;;153.80;2124.80;;;;;;5075040;28;20020;-54
2021/01/01 03:17:03;;;;;;;24.52;16.63;;;153.70;2124.80;;;;;;5074802;28;20027;-57
2021/01/01 03:19:28;;;;;;;24.52;15.95;;;153.70;2124.80;;;;;;5075169;28;20066;-56
2021/01/01 03:21:54;;;;;;;25.20;15.95;;;153.70;2124.80;;;;;;5075134;28;20025;-56
2021/01/01 03:24:20;;;;;;;24.05;15.68;;;153.70;2124.80;;;;;;5056634;28;20055;-55
2021/01/01 03:26:45;;;;;;;24.48;16.25;;;153.60;2124.80;;;;;;5074742;28;20070;-55
2021/01/01 03:29:11;;;;;;;26.10;16.58;;;153.60;2124.80;;;;;;5074693;28;20025;-56
2021/01/01 03:31:37;;;;;;;24.13;15.02;;;153.60;2124.80;;;;;;5074003;28;20078;-55
2021/01/01 03:34:02;;;;;;;21.92;14.50;;;128.90;2124.80;;;;;;5070026;28;20028;-55
2021/01/01 03:36:28;;;;;;;22.80;14.77;;;153.60;2124.80;;;;;;5074155;28;20016;-55
2021/01/01 03:38:56;;;;;;;40.00;22.85;;;153.60;2124.80;;;;;;5074762;28;20020;-55
2021/01/01 03:41:22;;;;;;;25.00;13.70;;;153.70;2124.80;;;;;;5074383;28;20024;-57
2021/01/01 03:43:47;;;;;;;23.55;15.07;;;153.60;2124.80;;;;;;5074372;28;20029;-55
2021/01/01 03:46:13;;;;;;;22.42;14.48;;;153.60;2124.80;;;;;;5074540;28;20029;-54
2021/01/01 03:48:39;;;;;;;18.92;12.80;;;153.70;2124.80;;;;;;5074591;28;20043;-56
2021/01/01 03:51:05;;;;;;;24.13;15.30;;;153.70;2099.20;;;;;;5074135;28;20420;-56
2021/01/01 03:53:30;;;;;;;24.20;14.13;;;153.60;2124.80;;;;;;5074580;28;20044;-55
2021/01/01 03:55:56;;;;;;;24.23;14.20;;;153.60;2124.80;;;;;;5073753;28;20108;-56
2021/01/01 03:58:22;;;;;;;24.48;15.10;;;153.60;2124.80;;;;;;5074369;28;20098;-55
2021/01/01 04:00:47;;;;;;;17.67;12.57;;;153.60;2124.80;;;;;;5074358;28;20025;-55
2021/01/01 04:03:13;;;;;;;24.13;12.70;;;153.60;2124.80;;;;;;5074198;28;20498;-55
2021/01/01 04:05:39;;;;;;;18.45;12.88;;;153.60;2124.80;;;;;;5074105;28;20040;-55
2021/01/01 04:08:04;;;;;;;18.20;12.63;;;153.60;2124.80;;;;;;5073734;28;20041;-56
2021/01/01 04:10:30;;;;;;;17.92;12.75;;;128.90;2124.80;;;;;;5074511;28;20020;-55
2021/01/01 04:12:56;;;;;;;17.00;12.23;;;128.90;2124.80;;;;;;5074004;28;20377;-55
2021/01/01 04:15:21;;;;;;;19.13;11.95;;;153.60;2124.80;;;;;;5073858;28;20443;-55
2021/01/01 04:17:47;;;;;;;21.15;11.93;;;153.70;2099.20;;;;;;5074316;28;20050;-56
2021/01/01 04:20:13;;;;;;;19.30;12.38;;;153.60;2124.80;;;;;;5073961;28;20013;-55
2021/01/01 04:22:38;;;;;;;18.67;12.68;;;153.60;2124.80;;;;;;5073641;28;20024;-54
2021/01/01 04:25:05;;;;;;;18.95;12.93;;;153.70;2099.20;;;;;;5073939;28;20052;-55
2021/01/01 04:27:31;;;;;;;18.40;11.90;;;153.60;2124.80;;;;;;5055820;28;20513;-55
2021/01/01 04:29:56;;;;;;;20.70;12.60;;;153.60;2124.80;;;;;;5074088;28;20052;-56
2021/01/01 04:32:22;;;;;;;19.40;12.73;;;153.70;2099.20;;;;;;5074016;28;20021;-56
2021/01/01 04:34:47;;;;;;;13.93;10.38;;;153.60;2124.80;;;;;;5056245;28;20039;-55
2021/01/01 04:37:13;;;;;;;15.93;10.55;;;153.70;2099.20;;;;;;5073519;28;20043;-55
2021/01/01 04:39:39;;;;;;;16.20;11.82;;;153.70;2099.20;;;;;;5074003;28;20032;-55
2021/01/01 04:42:05;;;;;;;17.58;11.98;;;153.60;2099.20;;;;;;5073315;28;20020;-56
2021/01/01 04:44:32;;;;;;;20.15;12.38;;;128.90;2124.80;;;;;;5070096;28;20070;-56
2021/01/01 04:47:01;;;;;;;17.48;11.65;;;128.70;2150.40;;;;;;5073650;28;20059;-56
2021/01/01 04:49:28;;;;;;;17.08;12.43;;;128.80;2150.40;;;;;;5073139;28;20028;-56
2021/01/01 04:52:00;;;;;;;22.83;13.35;;;128.80;2150.40;;;;;;5073734;28;20020;-55
2021/01/01 04:54:32;;;;;;;20.80;13.73;;;128.80;2150.40;;;;;;5073658;28;20036;-57
2021/01/01 04:56:58;;;;;;;20.13;13.18;;;128.80;2150.40;;;;;;5073320;28;20105;-55
2021/01/01 04:59:24;;;;;;;23.48;14.85;;;128.80;2150.40;;;;;;5073019;28;20067;-55
2021/01/01 05:01:49;;;;;;;27.02;15.55;;;128.80;2176.00;;;;;;5072992;28;20500;-57
2021/01/01 05:04:15;;;;;;;21.77;13.77;;;128.70;2150.40;;;;;;5073151;28;20033;-55
2021/01/01 05:06:42;;;;;;;19.45;12.48;;;128.70;2150.40;;;;;;5072894;28;20048;-55
2021/01/01 05:09:12;;;;;;;23.17;15.38;;;128.70;2150.40;;;;;;5072148;28;20032;-55
2021/01/01 05:11:38;;;;;;;22.17;14.27;;;128.70;2176.00;;;;;;5072693;28;20016;-56
2021/01/01 05:14:06;;;;;;;21.23;13.77;;;128.80;2176.00;;;;;;5072990;28;20031;-56
2021/01/01 05:16:33;;;;;;;24.02;14.00;;;128.60;2176.00;;;;;;5072779;28;20056;-56
2021/01/01 05:18:59;;;;;;;17.92;12.63;;;128.60;2176.00;;;;;;5072702;28;20428;-55
2021/01/01 05:21:28;;;;;;;19.85;13.23;;;128.70;2176.00;;;;;;5072933;28;20017;-54
2021/01/01 05:23:57;;;;;;;21.13;13.10;;;128.60;2176.00;;;;;;5073164;28;20373;-55
2021/01/01 05:26:29;;;;;;;20.02;12.88;;;128.50;2176.00;;;;;;5072700;28;20060;-55
2021/01/01 05:28:57;;;;;;;23.48;14.35;;;128.40;2176.00;;;;;;5072564;28;20079;-55
2021/01/01 05:31:24;;;;;;;22.90;13.38;;;128.40;2201.60;;;;;;5072640;28;20013;-56
2021/01/01 05:34:01;;;;;;;24.08;14.63;;;128.40;2201.60;;;;;;5072789;28;20421;-55
2021/01/01 05:36:32;;;;;;;23.05;15.23;;;128.70;2150.40;;;;;;5072422;28;20055;-54
2021/01/01 05:38:59;;;;;;;21.00;13.85;;;128.70;2150.40;;;;;;5072990;28;20032;-55
2021/01/01 05:41:33;;;;;;;16.88;11.07;;;128.70;2150.40;;;;;;5072538;28;20052;-54
2021/01/01 05:44:16;;;;;;;16.70;11.25;;;128.90;2124.80;;;;;;5070214;28;20093;-57
2021/01/01 05:46:56;;;;;;;20.88;11.75;;;128.90;2124.80;;;;;;5071995;28;20020;-55
2021/01/01 05:49:28;;;;;;;21.98;12.52;;;128.90;2150.40;;;;;;5072434;28;20078;-55
2021/01/01 05:52:08;;;;;;;17.52;12.55;;;128.90;2124.80;;;;;;5072536;28;20021;-57
2021/01/01 05:54:36;;;;;;;22.33;12.80;;;128.90;2124.80;;;;;;5072593;28;20032;-55
2021/01/01 05:57:07;;;;;;;19.20;12.88;;;128.90;2124.80;;;;;;5072391;28;20108;-55
2021/01/01 05:59:37;;;;;;;19.25;13.05;;;153.60;2124.80;;;;;;5072262;28;20099;-55
2021/01/01 06:02:04;;;;;;;20.45;14.02;;;128.90;2124.80;;;;;;5072126;28;20025;-54
2021/01/01 06:04:30;;;;;;;22.60;15.63;;;128.90;2124.80;;;;;;5072530;28;20017;-55
2021/01/01 06:07:00;;;;;;;26.63;14.68;;;128.90;2124.80;;;;;;5071938;28;20102;-55
2021/01/01 06:09:30;;;;;;;20.35;14.25;;;128.80;2150.40;;;;;;5072183;28;20043;-55
2021/01/01 06:12:05;;;;;;;28.50;16.75;;;128.70;2150.40;;;;;;5072060;28;20067;-55
2021/01/01 06:14:33;;;;;;;25.35;15.40;;;128.70;2176.00;;;;;;5072504;28;20025;-55
2021/01/01 06:17:11;;;;;;;21.58;13.93;;;128.70;2176.00;;;;;;5071820;28;20024;-55
2021/01/01 06:19:47;;;;;;;24.48;15.80;;;128.70;2150.40;;;;;;5073697;28;20355;-56
2021/01/01 06:22:18;;;;;;;23.88;15.90;;;128.60;2176.00;;;;;;5076510;28;20021;-55
2021/01/01 06:24:56;;;;;;;29.35;16.27;;;128.80;2150.40;;;;;;5076363;28;20021;-56
2021/01/01 06:27:24;;;;;;;24.58;15.70;;;128.70;2176.00;;;;;;5075779;28;20032;-56
2021/01/01 06:29:57;;;;;;;29.23;16.85;;;128.40;2227.20;;;;;;5076039;28;20038;-56
2021/01/01 06:32:24;;;;;;;34.03;20.30;;;128.50;2227.20;;;;;;5075933;28;20494;-56
2021/01/01 06:34:50;;;;;;;31.02;20.65;;;128.40;2252.80;;;;;;5076203;28;20032;-56
2021/01/01 06:37:40;;;;;;;36.05;20.63;;;128.40;2252.80;;;;;;5075836;28;20442;-55
2021/01/01 06:40:28;;;;;;;30.55;20.08;;;128.20;2252.80;;;;;;5075999;28;20458;-56
2021/01/01 06:42:58;;;;;;;29.73;19.20;;;128.30;2252.80;;;;;;5058302;28;20044;-55
2021/01/01 06:45:36;;;;;;;31.55;19.38;;;128.30;2252.80;;;;;;5076003;28;20103;-56
2021/01/01 06:48:28;;;;;;;31.85;19.13;;;128.50;2227.20;;;;;;5075757;28;20081;-55
2021/01/01 06:50:53;;;;;;;33.60;20.90;;;128.40;2252.80;;;;;;4974592;28;20105;-56
2021/01/01 06:53:27;;;;;;;38.15;22.33;;;128.40;2252.80;;;;;;4974606;28;20046;-56
2021/01/01 06:56:06;;;;;;;36.22;21.90;;;128.40;2252.80;;;;;;4974848;28;20039;-56
2021/01/01 06:58:31;;;;;;;32.65;21.80;;;128.40;2252.80;;;;;;4974802;28;20437;-56
2021/01/01 07:00:57;;;;;;;34.42;22.13;;;128.60;2227.20;;;;;;4974419;28;20031;-55
2021/01/01 07:03:26;;;;;;;42.67;28.90;;;128.70;2227.20;;;;;;4974245;28;20458;-56
2021/01/01 07:05:52;;;;;;;102.50;58.58;;;128.60;2227.20;;;;;;4974677;28;20578;-55
2021/01/01 07:08:40;;;;;;;152.30;86.35;;;128.60;2227.20;;;;;;4973047;28;20046;-55
2021/01/01 07:11:08;;;;;;;33.60;23.48;;;128.60;2227.20;;;;;;4974525;28;20485;-55
2021/01/01 07:13:50;;;;;;;65.60;41.10;;;128.50;2227.20;;;;;;4974457;28;20081;-55
2021/01/01 07:16:20;;;;;;;59.22;34.67;;;128.60;2252.80;;;;;;4974127;28;20039;-55
2021/01/01 07:18:47;;;;;;;46.45;28.98;;;128.50;2252.80;;;;;;4974171;28;20456;-55
2021/01/01 07:21:15;;;;;;;203.27;132.77;;;128.60;2227.20;;;;;;4974513;28;20134;-53
2021/01/01 07:23:41;;;;;;;129.07;104.75;;;128.80;2201.60;;;;;;4974125;28;20429;-55
2021/01/01 07:26:07;;;;;;;48.97;35.47;;;128.70;2201.60;;;;;;4974346;28;20126;-54
2021/01/01 07:28:33;;;;;;;34.95;24.63;;;128.80;2201.60;;;;;;5054097;28;20373;-55
2021/01/01 07:30:59;;;;;;;45.08;27.02;;;128.80;2201.60;;;;;;5074263;28;20027;-55
2021/01/01 07:33:27;;;;;;;55.83;30.65;;;128.80;2201.60;;;;;;5074963;28;20196;-55
2021/01/01 07:35:58;;;;;;;53.42;30.00;;;153.60;2201.60;;;;;;5075081;28;20025;-55
2021/01/01 07:38:25;;;;;;;41.08;26.20;;;153.70;2176.00;;;;;;5074634;28;20025;-55
2021/01/01 07:40:51;;;;;;;42.47;26.13;;;153.60;2176.00;;;;;;5073747;28;20496;-55
2021/01/01 07:43:18;;;;;;;34.03;22.20;;;153.70;2176.00;;;;;;5066975;28;20386;-56
2021/01/01 07:45:43;;;;;;;37.25;22.42;;;153.70;2150.40;;;;;;5074582;28;20390;-54
2021/01/01 07:48:10;;;;;;;31.25;20.77;;;153.80;2150.40;;;;;;5074397;28;20036;-55
2021/01/01 07:50:37;;;;;;;30.50;19.73;;;153.90;2124.80;;;;;;5075164;28;20039;-57
2021/01/01 07:53:03;;;;;;;27.73;19.85;;;154.00;2099.20;;;;;;5074948;28;20054;-55
2021/01/01 07:55:30;;;;;;;35.45;21.55;;;154.00;2124.80;;;;;;5074375;28;20114;-55
2021/01/01 07:58:08;;;;;;;34.05;24.02;;;154.00;2124.80;;;;;;5074579;28;20029;-54
2021/01/01 08:00:36;;;;;;;46.20;29.63;;;154.00;2150.40;;;;;;5074942;28;20539;-56
2021/01/01 08:03:03;;;;;;;53.60;31.95;;;154.10;2124.80;;;;;;5074335;28;20417;-55
2021/01/01 08:05:29;;;;;;;52.80;33.42;;;154.10;2124.80;;;;;;5073973;28;20035;-55
2021/01/01 08:07:55;;;;;;;50.28;31.10;;;154.20;2150.40;;;;;;5074080;28;20500;-56
2021/01/01 08:10:33;;;;;;;58.08;33.78;;;154.20;2124.80;;;;;;5074444;28;20032;-56
2021/01/01 08:12:59;;;;;;;47.25;29.30;;;154.30;2124.80;;;;;;5074369;28;20028;-57
2021/01/01 08:15:30;;;;;;;47.72;28.42;;;154.30;2124.80;;;;;;5073047;28;20475;-56
2021/01/01 08:17:56;;;;;;;42.35;29.23;;;154.40;2124.80;;;;;;5073926;28;20403;-57
2021/01/01 08:20:22;;;;;;;45.58;26.92;;;179.20;2099.20;;;;;;5074103;28;20031;-58
2021/01/01 08:22:49;;;;;;;59.28;38.75;;;154.50;2124.80;;;;;;5074055;28;20016;-56
2021/01/01 08:25:16;;;;;;;45.30;29.40;;;179.20;2099.20;;;;;;5074022;28;20036;-56
2021/01/01 08:27:43;;;;;;;60.97;47.20;;;179.30;2099.20;;;;;;5073521;28;20055;-57
2021/01/01 08:30:10;;;;;;;61.53;40.63;;;179.30;2099.20;;;;;;5074028;28;20067;-58
2021/01/01 08:32:37;;;;;;;50.55;39.17;;;179.40;2073.60;;;;;;5073352;28;20056;-56
2021/01/01 08:35:03;;;;;;;60.10;42.35;;;179.50;2073.60;;;;;;5073891;28;20361;-57
2021/01/01 08:37:29;;;;;;;57.88;39.40;;;179.60;2073.60;;;;;;5073742;28;20051;-55
2021/01/01 08:40:06;;;;;;;44.00;29.52;;;179.70;2048.00;;;;;;5073619;28;20463;-56
2021/01/01 08:42:39;;;;;;;70.03;53.10;;;179.80;2048.00;;;;;;5073557;28;20024;-56
2021/01/01 08:45:10;;;;;;;65.38;52.35;;;179.90;2022.40;;;;;;5073154;28;20024;-56
2021/01/01 08:47:39;;;;;;;130.73;116.78;;;180.10;1996.80;;;;;;5073335;28;20494;-55
2021/01/01 08:50:18;;;;;;;34.67;23.17;;;180.10;1971.20;;;;;;5073331;28;20378;-55
2021/01/01 08:52:45;;;;;;;31.55;19.73;;;205.00;1920.00;;;;;;5073247;28;20079;-58
2021/01/01 08:55:12;;;;;;;32.05;22.48;;;205.30;1843.20;;;;;;5072979;28;20429;-57
2021/01/01 08:57:38;;;;;;;29.05;19.60;;;205.40;1843.20;;;;;;5073230;28;20074;-58
2021/01/01 09:00:06;;;;;;;29.33;19.88;;;205.60;1792.00;;;;;;5073269;28;20086;-57
2021/01/01 09:02:33;;;;;;;24.27;16.85;;;230.40;1792.00;;;;;;5072910;28;20026;-55
2021/01/01 09:05:12;;;;;;;28.98;16.92;;;230.50;1740.80;;;;;;5131090;27;20469;-55
2021/01/01 09:07:37;;;;;;;23.70;15.57;;;230.60;1715.20;;;;;;5120320;28;20050;-55
2021/01/01 09:10:19;;;;;;;23.23;15.77;;;230.70;1689.60;;;;;;5110022;28;20144;-55
2021/01/01 09:12:44;;;;;;;22.50;16.58;;;230.80;1689.60;;;;;;5107543;28;20019;-56
2021/01/01 09:15:11;;;;;;;37.38;25.75;;;230.70;1715.20;;;;;;5108576;28;20073;-57
2021/01/01 09:17:37;;;;;;;43.80;27.67;;;230.80;1766.40;;;;;;5110175;28;20038;-56
2021/01/01 09:20:14;;;;;;;49.17;31.83;;;230.80;1792.00;;;;;;5110113;28;20023;-56
2021/01/01 09:22:40;;;;;;;48.08;31.63;;;230.60;1817.60;;;;;;5107657;28;20435;-55
2021/01/01 09:25:22;;;;;;;50.33;32.25;;;230.50;1843.20;;;;;;5109794;28;20027;-56
2021/01/01 09:27:49;;;;;;;51.42;32.22;;;230.40;1868.80;;;;;;5109449;28;20020;-57
2021/01/01 09:30:16;;;;;;;54.95;36.05;;;230.60;1817.60;;;;;;5110174;28;20027;-56
2021/01/01 09:32:43;;;;;;;58.28;37.83;;;230.50;1843.20;;;;;;5109180;28;20043;-56
2021/01/01 09:35:10;;;;;;;61.50;39.72;;;230.50;1843.20;;;;;;5109275;28;20020;-56
2021/01/01 09:37:35;;;;;;;63.33;39.38;;;230.40;1868.80;;;;;;5109839;28;20020;-55
2021/01/01 09:40:01;;;;;;;59.00;38.45;;;230.60;1843.20;;;;;;5110024;28;20350;-56
2021/01/01 09:42:27;;;;;;;63.90;40.28;;;230.70;1868.80;;;;;;5114576;28;20046;-56
2021/01/01 09:44:53;;;;;;;56.70;37.15;;;230.70;1843.20;;;;;;5110290;28;20335;-56
2021/01/01 09:47:18;;;;;;;57.65;37.00;;;230.80;1843.20;;;;;;5109622;28;20052;-56
2021/01/01 09:49:44;;;;;;;55.88;38.20;;;231.00;1817.60;;;;;;5110099;28;20016;-56
2021/01/01 09:52:09;;;;;;;60.05;36.17;;;231.00;1792.00;;;;;;5109293;28;20031;-56
2021/01/01 09:54:35;;;;;;;58.33;37.13;;;230.90;1792.00;;;;;;5109730;28;20020;-56
2021/01/01 09:57:01;;;;;;;62.80;38.97;;;231.00;1792.00;;;;;;5109502;28;20474;-56
2021/01/01 09:59:26;;;;;;;63.90;39.78;;;231.20;1766.40;;;;;;5109346;28;20681;-56
2021/01/01 10:01:52;;;;;;;56.22;38.03;;;231.20;1792.00;;;;;;5108307;28;20030;-55
2021/01/01 10:04:17;;;;;;;62.03;39.55;;;231.10;1792.00;;;;;;5108981;28;20056;-56
2021/01/01 10:06:49;;;;;;;55.78;36.10;;;231.10;1792.00;;;;;;5108915;28;20042;-56
2021/01/01 10:09:14;;;;;;;62.60;40.42;;;231.30;1792.00;;;;;;5109507;28;20516;-56
2021/01/01 10:11:40;;;;;;;67.80;45.13;;;231.20;1792.00;;;;;;5109152;28;20037;-54
2021/01/01 10:14:06;;;;;;;67.53;42.70;;;256.00;1792.00;;;;;;5109234;28;20016;-56
2021/01/01 10:16:39;;;;;;;63.75;40.72;;;256.10;1766.40;;;;;;5095323;28;20488;-58
2021/01/01 10:19:04;;;;;;;72.25;44.58;;;256.20;1740.80;;;;;;5095666;28;20016;-57
2021/01/01 10:21:30;;;;;;;71.00;46.55;;;256.30;1740.80;;;;;;5095744;28;20133;-55
2021/01/01 10:23:55;;;;;;;70.35;45.47;;;256.30;1740.80;;;;;;5095363;28;20123;-56
2021/01/01 10:26:21;;;;;;;53.30;35.70;;;256.30;1740.80;;;;;;5095187;28;20017;-55
2021/01/01 10:28:47;;;;;;;69.40;52.40;;;256.30;1689.60;;;;;;5095025;28;20038;-57
2021/01/01 10:31:12;;;;;;;12.13;8.88;;;256.30;1740.80;;;;;;5096757;28;20088;-56
2021/01/01 10:33:38;;;;;;;49.60;31.75;;;256.40;1459.20;;;;;;5111455;28;20035;-56
2021/01/01 10:36:04;;;;;;;51.65;32.60;;;256.60;1638.40;;;;;;5102258;28;20051;-56
2021/01/01 10:38:31;;;;;;;16.48;10.52;;;256.70;1638.40;;;;;;5094786;28;20024;-58
2021/01/01 10:40:57;;;;;;;49.47;34.15;;;256.80;1433.60;;;;;;5094990;28;20071;-56
2021/01/01 10:43:22;;;;;;;23.15;16.63;;;256.70;1612.80;;;;;;5094474;28;20482;-56
2021/01/01 10:45:48;;;;;;;30.42;20.70;;;256.80;1536.00;;;;;;5095053;28;20020;-57
2021/01/01 10:48:14;;;;;;;25.33;17.23;;;281.60;1587.20;;;;;;5094094;28;20069;-55
2021/01/01 10:50:39;;;;;;;20.05;11.20;;;281.60;1587.20;;;;;;5094663;28;20024;-56
2021/01/01 10:53:05;;;;;;;17.77;11.65;;;281.90;1484.80;;;;;;5092811;28;20032;-56
2021/01/01 10:55:33;;;;;;;17.17;10.20;;;281.90;1484.80;;;;;;5094321;28;20026;-56
2021/01/01 10:57:59;;;;;;;14.55;9.50;;;282.00;1459.20;;;;;;5094026;28;20024;-56
2021/01/01 11:00:24;;;;;;;14.25;9.30;;;282.00;1433.60;;;;;;5094334;28;20031;-56
2021/01/01 11:02:50;;;;;;;10.77;7.35;;;282.10;1433.60;;;;;;5094125;28;20023;-56
2021/01/01 11:05:16;;;;;;;8.55;5.65;;;282.10;1382.40;;;;;;5094148;28;20046;-57
2021/01/01 11:07:43;;;;;;;8.27;5.60;;;282.10;1331.20;;;;;;5093232;28;20046;-58
2021/01/01 11:10:08;;;;;;;9.55;5.82;;;282.10;1305.60;;;;;;5094234;28;20442;-57
2021/01/01 11:12:34;;;;;;;11.32;7.47;;;282.10;1356.80;;;;;;5093557;28;20059;-56
2021/01/01 12:24:21;;;;;;;7.80;4.50;;;332.80;1100.80;;;;;;5050339;28;20387;-57
2021/01/01 12:26:47;;;;;;;6.78;3.55;;;332.90;1126.40;;;;;;5050208;28;20033;-56
2021/01/01 12:29:12;;;;;;;8.38;3.75;;;332.90;1075.20;;;;;;5050128;28;20025;-58
2021/01/01 12:31:40;;;;;;;4.63;3.00;;;333.00;1126.40;;;;;;5050236;28;20116;-57
2021/01/01 12:34:06;;;;;;;5.95;3.80;;;333.10;1075.20;;;;;;5050594;28;20534;-58
2021/01/01 12:36:32;;;;;;;8.30;3.78;;;333.20;1049.60;;;;;;5049535;28;20078;-61
2021/01/01 12:38:58;;;;;;;5.50;3.25;;;333.20;1100.80;;;;;;5049326;28;20047;-58
2021/01/01 12:41:23;;;;;;;7.93;3.58;;;333.30;1075.20;;;;;;5049601;28;20047;-57
2021/01/01 12:43:49;;;;;;;4.90;3.03;;;333.50;1075.20;;;;;;5050477;28;20037;-57
2021/01/01 12:46:15;;;;;;;7.80;3.88;;;333.60;1075.20;;;;;;5050449;28;20465;-55
2021/01/01 12:48:40;;;;;;;9.32;3.78;;;333.60;1075.20;;;;;;5050523;28;20808;-56
2021/01/01 12:51:06;;;;;;;4.88;3.35;;;333.40;1075.20;;;;;;5066401;28;20137;-56
2021/01/01 12:53:32;;;;;;;7.20;4.05;;;333.70;1049.60;;;;;;5092976;28;20039;-58
2021/01/01 12:55:57;;;;;;;7.57;4.32;;;358.40;1024.00;;;;;;5093060;28;20038;-66
2021/01/01 12:58:23;;;;;;;4.25;2.85;;;358.50;1049.60;;;;;;5092806;28;20107;-56
2021/01/01 13:00:49;;;;;;;6.05;3.50;;;358.70;1024.00;;;;;;5093427;28;20067;-56
2021/01/01 13:03:15;;;;;;;6.45;2.78;;;358.70;972.80;;;;;;5092088;28;20043;-59
2021/01/01 13:05:40;;;;;;;5.20;3.00;;;358.80;972.80;;;;;;5092642;28;20024;-58
2021/01/01 13:08:08;;;;;;;4.55;2.75;;;358.90;972.80;;;;;;5092194;28;20081;-58
2021/01/01 13:10:33;;;;;;;4.20;2.72;;;359.00;972.80;;;;;;5090207;28;20040;-56
2021/01/01 13:12:59;;;;;;;4.05;2.95;;;359.10;947.20;;;;;;5092031;28;20067;-57